sensor_id;sensor_type;location;lat;lon;timestamp;P1;durP1;ratioP1;P2;durP2;ratioP2
43664;SDS011;29263;48.172;11.484;2022-07-23T01:56:57;14.13;;;7.75;;
43664;SDS011;29263;48.172;11.484;2022-07-23T02:07:34;12.32;;;8.18;;
43664;SDS011;29263;48.172;11.484;2022-07-23T02:10:55;11.13;;;8.23;;
43664;SDS011;29263;48.172;11.484;2022-07-23T02:14:19;15.68;;;8.85;;
43664;SDS011;29263;48.172;11.484;2022-07-23T02:16:48;11.60;;;7.55;;
43664;SDS011;29263;48.172;11.484;2022-07-23T02:19:15;11.05;;;8.05;;
43664;SDS011;29263;48.172;11.484;2022-07-23T02:21:42;10.77;;;8.40;;
43664;SDS011;29263;48.172;11.484;2022-07-23T02:24:08;12.05;;;7.53;;
43664;SDS011;29263;48.172;11.484;2022-07-23T02:26:34;15.85;;;7.65;;
43664;SDS011;29263;48.172;11.484;2022-07-23T02:29:00;11.15;;;7.55;;
43664;SDS011;29263;48.172;11.484;2022-07-23T02:31:27;10.88;;;7.00;;
43664;SDS011;29263;48.172;11.484;2022-07-23T02:33:54;13.32;;;8.45;;
43664;SDS011;29263;48.172;11.484;2022-07-23T02:36:20;11.55;;;7.50;;
43664;SDS011;29263;48.172;11.484;2022-07-23T02:38:46;9.98;;;6.82;;
43664;SDS011;29263;48.172;11.484;2022-07-23T02:41:33;11.73;;;6.80;;
43664;SDS011;29263;48.172;11.484;2022-07-23T02:44:00;11.85;;;6.82;;
43664;SDS011;29263;48.172;11.484;2022-07-23T02:46:33;9.48;;;6.65;;
43664;SDS011;29263;48.172;11.484;2022-07-23T02:49:59;12.15;;;7.35;;
43664;SDS011;29263;48.172;11.484;2022-07-23T02:53:33;10.10;;;6.63;;
43664;SDS011;29263;48.172;11.484;2022-07-23T02:56:59;11.60;;;6.75;;
43664;SDS011;29263;48.172;11.484;2022-07-23T03:00:23;10.10;;;6.73;;
43664;SDS011;29263;48.172;11.484;2022-07-23T03:03:45;12.65;;;7.15;;
43664;SDS011;29263;48.172;11.484;2022-07-23T03:06:14;9.02;;;6.20;;
43664;SDS011;29263;48.172;11.484;2022-07-23T03:08:48;9.00;;;6.30;;
43664;SDS011;29263;48.172;11.484;2022-07-23T03:39:35;8.27;;;5.63;;
43664;SDS011;29263;48.172;11.484;2022-07-23T03:46:17;8.23;;;5.70;;
43664;SDS011;29263;48.172;11.484;2022-07-23T04:35:13;12.85;;;6.53;;
43664;SDS011;29263;48.172;11.484;2022-07-23T04:37:45;12.70;;;7.20;;
43664;SDS011;29263;48.172;11.484;2022-07-23T04:40:30;8.63;;;6.55;;
43664;SDS011;29263;48.172;11.484;2022-07-23T04:42:56;8.82;;;6.38;;
43664;SDS011;29263;48.172;11.484;2022-07-23T04:54:40;10.13;;;6.75;;
43664;SDS011;29263;48.172;11.484;2022-07-23T04:57:06;7.93;;;6.55;;
43664;SDS011;29263;48.172;11.484;2022-07-23T04:59:37;12.07;;;7.47;;
43664;SDS011;29263;48.172;11.484;2022-07-23T05:04:49;12.75;;;7.63;;
43664;SDS011;29263;48.172;11.484;2022-07-23T05:07:15;11.30;;;7.47;;
43664;SDS011;29263;48.172;11.484;2022-07-23T05:13:02;11.77;;;7.38;;
43664;SDS011;29263;48.172;11.484;2022-07-23T05:15:27;9.75;;;7.45;;
43664;SDS011;29263;48.172;11.484;2022-07-23T05:17:53;8.73;;;7.25;;
43664;SDS011;29263;48.172;11.484;2022-07-23T07:02:13;11.48;;;7.93;;
43664;SDS011;29263;48.172;11.484;2022-07-23T07:04:39;8.73;;;7.53;;
43664;SDS011;29263;48.172;11.484;2022-07-23T10:47:04;4.90;;;3.45;;
43664;SDS011;29263;48.172;11.484;2022-07-23T11:03:28;3.35;;;2.83;;
43664;SDS011;29263;48.172;11.484;2022-07-23T11:05:55;5.05;;;3.13;;
43664;SDS011;29263;48.172;11.484;2022-07-23T12:39:36;4.82;;;3.90;;
43664;SDS011;29263;48.172;11.484;2022-07-23T12:58:40;6.15;;;3.67;;
43664;SDS011;29263;48.172;11.484;2022-07-23T13:02:08;4.97;;;4.05;;
43664;SDS011;29263;48.172;11.484;2022-07-23T13:04:34;5.18;;;4.07;;
43664;SDS011;29263;48.172;11.484;2022-07-23T13:30:39;5.40;;;4.63;;
43664;SDS011;29263;48.172;11.484;2022-07-23T13:33:39;5.40;;;4.40;;
43664;SDS011;29263;48.172;11.484;2022-07-23T13:36:07;4.57;;;3.97;;
43664;SDS011;29263;48.172;11.484;2022-07-23T13:38:52;5.60;;;4.70;;
43664;SDS011;29263;48.172;11.484;2022-07-23T13:41:40;5.37;;;4.57;;
43664;SDS011;29263;48.172;11.484;2022-07-23T13:44:06;7.93;;;4.70;;
43664;SDS011;29263;48.172;11.484;2022-07-23T13:46:39;7.80;;;4.53;;
43664;SDS011;29263;48.172;11.484;2022-07-23T13:49:05;7.97;;;4.25;;
43664;SDS011;29263;48.172;11.484;2022-07-23T13:55:16;8.45;;;5.38;;
43664;SDS011;29263;48.172;11.484;2022-07-23T14:01:12;5.43;;;4.57;;
43664;SDS011;29263;48.172;11.484;2022-07-23T14:03:40;5.65;;;4.25;;
43664;SDS011;29263;48.172;11.484;2022-07-23T14:06:13;13.00;;;4.90;;
43664;SDS011;29263;48.172;11.484;2022-07-23T14:08:55;5.15;;;4.00;;
43664;SDS011;29263;48.172;11.484;2022-07-23T14:14:26;6.03;;;4.43;;
43664;SDS011;29263;48.172;11.484;2022-07-23T14:16:52;5.43;;;4.63;;
43664;SDS011;29263;48.172;11.484;2022-07-23T14:19:45;5.25;;;4.40;;
43664;SDS011;29263;48.172;11.484;2022-07-23T14:22:17;5.88;;;4.38;;
43664;SDS011;29263;48.172;11.484;2022-07-23T14:25:02;6.22;;;4.18;;
43664;SDS011;29263;48.172;11.484;2022-07-23T14:27:42;6.80;;;4.30;;
43664;SDS011;29263;48.172;11.484;2022-07-23T14:30:09;5.10;;;4.60;;
43664;SDS011;29263;48.172;11.484;2022-07-23T14:36:33;5.55;;;3.95;;
43664;SDS011;29263;48.172;11.484;2022-07-23T14:38:58;7.05;;;4.70;;
43664;SDS011;29263;48.172;11.484;2022-07-23T14:41:25;5.05;;;4.32;;
43664;SDS011;29263;48.172;11.484;2022-07-23T14:43:58;6.25;;;4.55;;
43664;SDS011;29263;48.172;11.484;2022-07-23T14:47:19;7.13;;;4.35;;
43664;SDS011;29263;48.172;11.484;2022-07-23T14:49:46;6.63;;;3.95;;
43664;SDS011;29263;48.172;11.484;2022-07-23T14:52:37;5.38;;;4.55;;
43664;SDS011;29263;48.172;11.484;2022-07-23T14:55:36;5.22;;;4.50;;
43664;SDS011;29263;48.172;11.484;2022-07-23T14:58:42;4.78;;;4.32;;
43664;SDS011;29263;48.172;11.484;2022-07-23T15:02:11;5.20;;;4.22;;
43664;SDS011;29263;48.172;11.484;2022-07-23T15:08:28;5.55;;;4.22;;
43664;SDS011;29263;48.172;11.484;2022-07-23T15:11:32;5.10;;;3.60;;
43664;SDS011;29263;48.172;11.484;2022-07-23T15:20:45;5.30;;;3.95;;
43664;SDS011;29263;48.172;11.484;2022-07-23T15:27:45;4.38;;;3.97;;
43664;SDS011;29263;48.172;11.484;2022-07-23T15:30:57;5.18;;;3.85;;
43664;SDS011;29263;48.172;11.484;2022-07-23T15:33:58;5.43;;;3.88;;
43664;SDS011;29263;48.172;11.484;2022-07-23T15:42:42;5.43;;;4.28;;
43664;SDS011;29263;48.172;11.484;2022-07-23T15:45:16;6.07;;;4.40;;
43664;SDS011;29263;48.172;11.484;2022-07-23T15:48:29;8.57;;;4.60;;
43664;SDS011;29263;48.172;11.484;2022-07-23T15:54:04;5.82;;;4.53;;
43664;SDS011;29263;48.172;11.484;2022-07-23T15:56:40;6.18;;;5.05;;
43664;SDS011;29263;48.172;11.484;2022-07-23T15:59:26;5.72;;;4.90;;
43664;SDS011;29263;48.172;11.484;2022-07-23T16:05:44;6.15;;;5.00;;
43664;SDS011;29263;48.172;11.484;2022-07-23T16:09:26;5.93;;;4.88;;
43664;SDS011;29263;48.172;11.484;2022-07-23T16:12:06;8.57;;;5.00;;
43664;SDS011;29263;48.172;11.484;2022-07-23T16:14:53;7.85;;;4.82;;
43664;SDS011;29263;48.172;11.484;2022-07-23T16:17:40;5.38;;;4.88;;
43664;SDS011;29263;48.172;11.484;2022-07-23T16:20:26;5.30;;;4.80;;
43664;SDS011;29263;48.172;11.484;2022-07-23T16:22:59;5.50;;;4.70;;
43664;SDS011;29263;48.172;11.484;2022-07-23T16:26:00;5.53;;;4.97;;
43664;SDS011;29263;48.172;11.484;2022-07-23T16:28:27;5.43;;;4.85;;
43664;SDS011;29263;48.172;11.484;2022-07-23T16:30:56;6.32;;;5.57;;
43664;SDS011;29263;48.172;11.484;2022-07-23T16:33:24;7.55;;;5.65;;
43664;SDS011;29263;48.172;11.484;2022-07-23T16:35:52;7.70;;;5.00;;
43664;SDS011;29263;48.172;11.484;2022-07-23T16:38:20;5.32;;;4.70;;
43664;SDS011;29263;48.172;11.484;2022-07-23T16:40:47;6.88;;;5.38;;
43664;SDS011;29263;48.172;11.484;2022-07-23T16:43:15;6.57;;;5.47;;
43664;SDS011;29263;48.172;11.484;2022-07-23T16:45:43;6.03;;;4.80;;
43664;SDS011;29263;48.172;11.484;2022-07-23T16:48:10;6.13;;;5.35;;
43664;SDS011;29263;48.172;11.484;2022-07-23T16:50:44;7.30;;;4.97;;
43664;SDS011;29263;48.172;11.484;2022-07-23T16:53:36;5.47;;;4.93;;
43664;SDS011;29263;48.172;11.484;2022-07-23T16:56:35;5.63;;;5.10;;
43664;SDS011;29263;48.172;11.484;2022-07-23T16:59:30;5.80;;;5.20;;
43664;SDS011;29263;48.172;11.484;2022-07-23T17:02:16;5.80;;;5.28;;
43664;SDS011;29263;48.172;11.484;2022-07-23T17:05:21;6.78;;;5.60;;
43664;SDS011;29263;48.172;11.484;2022-07-23T17:07:47;6.25;;;5.55;;
43664;SDS011;29263;48.172;11.484;2022-07-23T17:10:14;6.40;;;5.20;;
43664;SDS011;29263;48.172;11.484;2022-07-23T17:13:01;5.80;;;5.03;;
43664;SDS011;29263;48.172;11.484;2022-07-23T17:15:53;6.25;;;5.35;;
43664;SDS011;29263;48.172;11.484;2022-07-23T17:18:57;8.45;;;5.40;;
43664;SDS011;29263;48.172;11.484;2022-07-23T17:21:23;7.05;;;5.18;;
43664;SDS011;29263;48.172;11.484;2022-07-23T17:23:57;5.95;;;5.03;;
43664;SDS011;29263;48.172;11.484;2022-07-23T17:26:23;5.70;;;5.10;;
43664;SDS011;29263;48.172;11.484;2022-07-23T17:28:50;7.32;;;5.65;;
43664;SDS011;29263;48.172;11.484;2022-07-23T17:31:23;7.45;;;5.88;;
43664;SDS011;29263;48.172;11.484;2022-07-23T17:34:08;6.95;;;6.22;;
43664;SDS011;29263;48.172;11.484;2022-07-23T17:36:34;7.63;;;6.40;;
43664;SDS011;29263;48.172;11.484;2022-07-23T17:39:00;7.40;;;6.65;;
43664;SDS011;29263;48.172;11.484;2022-07-23T17:41:26;8.52;;;5.95;;
43664;SDS011;29263;48.172;11.484;2022-07-23T17:43:52;6.55;;;5.90;;
43664;SDS011;29263;48.172;11.484;2022-07-23T17:46:39;6.45;;;5.65;;
43664;SDS011;29263;48.172;11.484;2022-07-23T17:49:05;7.00;;;5.50;;
43664;SDS011;29263;48.172;11.484;2022-07-23T17:51:31;9.10;;;5.35;;
43664;SDS011;29263;48.172;11.484;2022-07-23T17:53:57;8.82;;;5.75;;
43664;SDS011;29263;48.172;11.484;2022-07-23T17:56:23;6.93;;;6.10;;
43664;SDS011;29263;48.172;11.484;2022-07-23T17:58:49;7.18;;;5.20;;
43664;SDS011;29263;48.172;11.484;2022-07-23T18:01:18;9.02;;;6.22;;
43664;SDS011;29263;48.172;11.484;2022-07-23T18:03:43;9.90;;;5.88;;
43664;SDS011;29263;48.172;11.484;2022-07-23T18:06:11;7.57;;;5.55;;
43664;SDS011;29263;48.172;11.484;2022-07-23T18:08:57;5.93;;;5.30;;
43664;SDS011;29263;48.172;11.484;2022-07-23T18:11:24;7.97;;;5.75;;
43664;SDS011;29263;48.172;11.484;2022-07-23T18:13:52;7.28;;;5.70;;
43664;SDS011;29263;48.172;11.484;2022-07-23T18:16:19;6.25;;;5.07;;
43664;SDS011;29263;48.172;11.484;2022-07-23T18:18:46;6.40;;;5.07;;
43664;SDS011;29263;48.172;11.484;2022-07-23T18:21:11;7.97;;;5.35;;
43664;SDS011;29263;48.172;11.484;2022-07-23T18:23:38;5.97;;;5.38;;
43664;SDS011;29263;48.172;11.484;2022-07-23T18:26:05;7.55;;;5.85;;
43664;SDS011;29263;48.172;11.484;2022-07-23T18:28:32;6.03;;;5.20;;
43664;SDS011;29263;48.172;11.484;2022-07-23T18:31:00;6.00;;;5.22;;
43664;SDS011;29263;48.172;11.484;2022-07-23T18:33:25;5.97;;;4.78;;
43664;SDS011;29263;48.172;11.484;2022-07-23T18:35:51;6.55;;;5.40;;
43664;SDS011;29263;48.172;11.484;2022-07-23T18:38:17;7.10;;;5.63;;
43664;SDS011;29263;48.172;11.484;2022-07-23T18:40:43;7.90;;;5.53;;
43664;SDS011;29263;48.172;11.484;2022-07-23T18:43:09;5.95;;;5.35;;
43664;SDS011;29263;48.172;11.484;2022-07-23T18:45:34;5.75;;;5.15;;
43664;SDS011;29263;48.172;11.484;2022-07-23T18:48:00;8.20;;;5.38;;
43664;SDS011;29263;48.172;11.484;2022-07-23T18:50:26;7.13;;;5.68;;
43664;SDS011;29263;48.172;11.484;2022-07-23T18:52:52;7.20;;;5.45;;
43664;SDS011;29263;48.172;11.484;2022-07-23T18:55:18;8.43;;;5.63;;
43664;SDS011;29263;48.172;11.484;2022-07-23T18:57:44;5.70;;;5.18;;
43664;SDS011;29263;48.172;11.484;2022-07-23T19:00:10;7.13;;;5.38;;
43664;SDS011;29263;48.172;11.484;2022-07-23T19:02:37;8.52;;;5.90;;
43664;SDS011;29263;48.172;11.484;2022-07-23T19:05:03;7.97;;;5.68;;
43664;SDS011;29263;48.172;11.484;2022-07-23T19:07:29;6.18;;;5.28;;
43664;SDS011;29263;48.172;11.484;2022-07-23T19:09:56;6.82;;;5.50;;
43664;SDS011;29263;48.172;11.484;2022-07-23T19:12:22;7.28;;;6.15;;
43664;SDS011;29263;48.172;11.484;2022-07-23T19:14:48;6.45;;;5.70;;
43664;SDS011;29263;48.172;11.484;2022-07-23T19:17:34;5.50;;;5.00;;
43664;SDS011;29263;48.172;11.484;2022-07-23T19:20:00;8.07;;;6.32;;
43664;SDS011;29263;48.172;11.484;2022-07-23T19:22:26;7.18;;;5.88;;
43664;SDS011;29263;48.172;11.484;2022-07-23T19:24:52;7.38;;;6.30;;
43664;SDS011;29263;48.172;11.484;2022-07-23T19:27:18;7.78;;;5.85;;
43664;SDS011;29263;48.172;11.484;2022-07-23T19:29:45;8.90;;;6.13;;
43664;SDS011;29263;48.172;11.484;2022-07-23T19:32:10;6.10;;;5.47;;
43664;SDS011;29263;48.172;11.484;2022-07-23T19:34:36;7.43;;;5.65;;
43664;SDS011;29263;48.172;11.484;2022-07-23T19:37:03;6.68;;;5.63;;
43664;SDS011;29263;48.172;11.484;2022-07-23T19:39:43;7.32;;;6.30;;
43664;SDS011;29263;48.172;11.484;2022-07-23T19:42:10;8.27;;;6.18;;
43664;SDS011;29263;48.172;11.484;2022-07-23T19:44:36;7.40;;;5.63;;
43664;SDS011;29263;48.172;11.484;2022-07-23T19:47:02;7.15;;;5.90;;
43664;SDS011;29263;48.172;11.484;2022-07-23T19:49:29;7.13;;;6.03;;
43664;SDS011;29263;48.172;11.484;2022-07-23T19:51:55;6.45;;;5.43;;
43664;SDS011;29263;48.172;11.484;2022-07-23T19:54:20;8.50;;;6.00;;
43664;SDS011;29263;48.172;11.484;2022-07-23T19:56:46;7.15;;;5.53;;
43664;SDS011;29263;48.172;11.484;2022-07-23T19:59:12;12.15;;;8.50;;
43664;SDS011;29263;48.172;11.484;2022-07-23T20:01:37;11.32;;;7.47;;
43664;SDS011;29263;48.172;11.484;2022-07-23T20:10:46;7.55;;;5.25;;
43664;SDS011;29263;48.172;11.484;2022-07-23T20:13:12;6.35;;;5.15;;
43664;SDS011;29263;48.172;11.484;2022-07-23T20:15:38;5.53;;;4.90;;
43664;SDS011;29263;48.172;11.484;2022-07-23T20:18:03;6.20;;;5.60;;
43664;SDS011;29263;48.172;11.484;2022-07-23T20:20:29;8.02;;;5.32;;
43664;SDS011;29263;48.172;11.484;2022-07-23T20:22:55;5.50;;;5.00;;
43664;SDS011;29263;48.172;11.484;2022-07-23T20:25:21;6.05;;;5.05;;
43664;SDS011;29263;48.172;11.484;2022-07-23T20:27:47;6.82;;;5.50;;
43664;SDS011;29263;48.172;11.484;2022-07-23T20:30:12;5.45;;;4.82;;
43664;SDS011;29263;48.172;11.484;2022-07-23T20:32:38;6.47;;;5.32;;
43664;SDS011;29263;48.172;11.484;2022-07-23T20:35:24;6.78;;;5.40;;
43664;SDS011;29263;48.172;11.484;2022-07-23T20:37:50;5.53;;;5.03;;
43664;SDS011;29263;48.172;11.484;2022-07-23T20:40:16;11.05;;;5.43;;
43664;SDS011;29263;48.172;11.484;2022-07-23T20:42:43;6.22;;;5.20;;
43664;SDS011;29263;48.172;11.484;2022-07-23T20:45:09;7.80;;;6.03;;
43664;SDS011;29263;48.172;11.484;2022-07-23T20:47:35;5.53;;;4.95;;
43664;SDS011;29263;48.172;11.484;2022-07-23T20:50:04;7.22;;;5.00;;
43664;SDS011;29263;48.172;11.484;2022-07-23T20:52:31;5.30;;;4.63;;
43664;SDS011;29263;48.172;11.484;2022-07-23T20:54:57;7.10;;;5.25;;
43664;SDS011;29263;48.172;11.484;2022-07-23T20:57:23;5.40;;;4.88;;
43664;SDS011;29263;48.172;11.484;2022-07-23T20:59:49;5.38;;;4.85;;
43664;SDS011;29263;48.172;11.484;2022-07-23T21:02:14;7.75;;;5.13;;
43664;SDS011;29263;48.172;11.484;2022-07-23T21:04:40;5.47;;;4.80;;
43664;SDS011;29263;48.172;11.484;2022-07-23T21:07:06;5.78;;;4.88;;
43664;SDS011;29263;48.172;11.484;2022-07-23T21:09:32;6.72;;;5.50;;
43664;SDS011;29263;48.172;11.484;2022-07-23T21:11:58;7.05;;;4.85;;
43664;SDS011;29263;48.172;11.484;2022-07-23T21:14:23;7.05;;;5.50;;
43664;SDS011;29263;48.172;11.484;2022-07-23T21:16:51;5.47;;;4.85;;
43664;SDS011;29263;48.172;11.484;2022-07-23T21:19:17;5.38;;;4.88;;
43664;SDS011;29263;48.172;11.484;2022-07-23T21:21:42;6.20;;;5.18;;
43664;SDS011;29263;48.172;11.484;2022-07-23T21:24:08;6.13;;;5.20;;
43664;SDS011;29263;48.172;11.484;2022-07-23T21:26:54;5.72;;;5.03;;
43664;SDS011;29263;48.172;11.484;2022-07-23T21:29:20;6.60;;;5.00;;
43664;SDS011;29263;48.172;11.484;2022-07-23T21:31:45;6.88;;;5.65;;
43664;SDS011;29263;48.172;11.484;2022-07-23T21:34:12;7.00;;;6.20;;
43664;SDS011;29263;48.172;11.484;2022-07-23T21:36:38;6.72;;;5.72;;
43664;SDS011;29263;48.172;11.484;2022-07-23T21:39:04;7.25;;;6.35;;
43664;SDS011;29263;48.172;11.484;2022-07-23T21:41:30;7.85;;;5.70;;
43664;SDS011;29263;48.172;11.484;2022-07-23T21:43:57;8.70;;;6.75;;
43664;SDS011;29263;48.172;11.484;2022-07-23T21:46:32;7.45;;;6.38;;
43664;SDS011;29263;48.172;11.484;2022-07-23T21:48:59;7.18;;;6.32;;
43664;SDS011;29263;48.172;11.484;2022-07-23T21:51:28;9.55;;;6.63;;
43664;SDS011;29263;48.172;11.484;2022-07-23T21:53:54;8.48;;;6.28;;
43664;SDS011;29263;48.172;11.484;2022-07-23T21:56:21;8.77;;;5.88;;
43664;SDS011;29263;48.172;11.484;2022-07-23T21:58:48;9.00;;;5.78;;
43664;SDS011;29263;48.172;11.484;2022-07-23T22:01:13;9.07;;;6.72;;
43664;SDS011;29263;48.172;11.484;2022-07-23T22:03:39;7.50;;;5.85;;
43664;SDS011;29263;48.172;11.484;2022-07-23T22:06:05;9.30;;;6.93;;
43664;SDS011;29263;48.172;11.484;2022-07-23T22:08:31;8.15;;;6.35;;
43664;SDS011;29263;48.172;11.484;2022-07-23T22:10:56;9.88;;;8.02;;
43664;SDS011;29263;48.172;11.484;2022-07-23T22:13:23;9.05;;;6.88;;
43664;SDS011;29263;48.172;11.484;2022-07-23T22:15:48;8.80;;;6.63;;
43664;SDS011;29263;48.172;11.484;2022-07-23T22:18:15;7.97;;;6.45;;
43664;SDS011;29263;48.172;11.484;2022-07-23T22:20:42;9.48;;;7.53;;
43664;SDS011;29263;48.172;11.484;2022-07-23T22:23:08;7.93;;;6.93;;
43664;SDS011;29263;48.172;11.484;2022-07-23T22:25:35;10.02;;;6.38;;
43664;SDS011;29263;48.172;11.484;2022-07-23T22:28:02;8.63;;;5.95;;
43664;SDS011;29263;48.172;11.484;2022-07-23T22:30:29;9.05;;;6.50;;
43664;SDS011;29263;48.172;11.484;2022-07-23T22:33:15;7.75;;;5.95;;
43664;SDS011;29263;48.172;11.484;2022-07-23T22:35:41;6.47;;;5.63;;
43664;SDS011;29263;48.172;11.484;2022-07-23T22:38:07;8.88;;;6.43;;
43664;SDS011;29263;48.172;11.484;2022-07-23T22:40:33;7.43;;;6.10;;
43664;SDS011;29263;48.172;11.484;2022-07-23T22:42:59;7.07;;;5.80;;
43664;SDS011;29263;48.172;11.484;2022-07-23T22:45:24;7.22;;;6.30;;
43664;SDS011;29263;48.172;11.484;2022-07-23T22:47:50;7.63;;;5.82;;
43664;SDS011;29263;48.172;11.484;2022-07-23T22:50:18;7.05;;;5.45;;
43664;SDS011;29263;48.172;11.484;2022-07-23T22:52:44;8.98;;;6.18;;
43664;SDS011;29263;48.172;11.484;2022-07-23T22:55:09;6.32;;;5.68;;
43664;SDS011;29263;48.172;11.484;2022-07-23T22:57:36;6.18;;;5.40;;
43664;SDS011;29263;48.172;11.484;2022-07-23T23:00:03;7.00;;;5.47;;
43664;SDS011;29263;48.172;11.484;2022-07-23T23:02:31;6.78;;;5.50;;
43664;SDS011;29263;48.172;11.484;2022-07-23T23:04:57;6.40;;;4.93;;
43664;SDS011;29263;48.172;11.484;2022-07-23T23:07:23;7.07;;;5.78;;
43664;SDS011;29263;48.172;11.484;2022-07-23T23:09:48;7.55;;;6.18;;
43664;SDS011;29263;48.172;11.484;2022-07-23T23:12:15;7.65;;;5.70;;
43664;SDS011;29263;48.172;11.484;2022-07-23T23:14:41;6.18;;;5.22;;
43664;SDS011;29263;48.172;11.484;2022-07-23T23:17:07;6.32;;;5.65;;
43664;SDS011;29263;48.172;11.484;2022-07-23T23:19:34;6.65;;;5.53;;
43664;SDS011;29263;48.172;11.484;2022-07-23T23:21:59;7.40;;;5.30;;
43664;SDS011;29263;48.172;11.484;2022-07-23T23:24:25;5.57;;;5.05;;
43664;SDS011;29263;48.172;11.484;2022-07-23T23:26:51;7.07;;;5.88;;
43664;SDS011;29263;48.172;11.484;2022-07-23T23:29:17;6.10;;;5.47;;
43664;SDS011;29263;48.172;11.484;2022-07-23T23:31:42;7.70;;;6.22;;
43664;SDS011;29263;48.172;11.484;2022-07-23T23:34:08;6.43;;;5.82;;
43664;SDS011;29263;48.172;11.484;2022-07-23T23:36:34;5.63;;;5.03;;
43664;SDS011;29263;48.172;11.484;2022-07-23T23:39:00;7.13;;;5.88;;
43664;SDS011;29263;48.172;11.484;2022-07-23T23:41:25;9.32;;;5.93;;
43664;SDS011;29263;48.172;11.484;2022-07-23T23:43:51;6.70;;;6.00;;
43664;SDS011;29263;48.172;11.484;2022-07-23T23:46:17;6.60;;;5.35;;
43664;SDS011;29263;48.172;11.484;2022-07-23T23:48:43;7.15;;;5.75;;
43664;SDS011;29263;48.172;11.484;2022-07-23T23:51:10;6.20;;;5.60;;
43664;SDS011;29263;48.172;11.484;2022-07-23T23:53:36;6.82;;;5.95;;
43664;SDS011;29263;48.172;11.484;2022-07-23T23:56:01;6.90;;;6.03;;
43664;SDS011;29263;48.172;11.484;2022-07-23T23:58:28;6.88;;;6.18;;
